sensor_id;sensor_type;location;lat;lon;timestamp;P1;durP1;ratioP1;P2;durP2;ratioP2
74789;SDS011;63318;52.406;13.416;2022-09-28T00:00:57;3.30;;;1.40;;
74789;SDS011;63318;52.406;13.416;2022-09-28T00:03:25;3.20;;;1.60;;
74789;SDS011;63318;52.406;13.416;2022-09-28T00:05:58;4.30;;;1.50;;
74789;SDS011;63318;52.406;13.416;2022-09-28T00:08:28;3.60;;;1.60;;
74789;SDS011;63318;52.406;13.416;2022-09-28T00:10:56;3.30;;;1.50;;
74789;SDS011;63318;52.406;13.416;2022-09-28T00:13:25;4.20;;;1.50;;
74789;SDS011;63318;52.406;13.416;2022-09-28T00:16:00;4.60;;;1.70;;
74789;SDS011;63318;52.406;13.416;2022-09-28T00:18:30;5.20;;;1.80;;
74789;SDS011;63318;52.406;13.416;2022-09-28T00:21:06;3.50;;;1.50;;
74789;SDS011;63318;52.406;13.416;2022-09-28T00:23:36;3.60;;;1.70;;
74789;SDS011;63318;52.406;13.416;2022-09-28T00:26:05;3.70;;;1.40;;
74789;SDS011;63318;52.406;13.416;2022-09-28T00:28:34;3.00;;;1.30;;
74789;SDS011;63318;52.406;13.416;2022-09-28T00:31:02;6.10;;;1.40;;
74789;SDS011;63318;52.406;13.416;2022-09-28T00:33:30;3.00;;;1.40;;
74789;SDS011;63318;52.406;13.416;2022-09-28T00:35:58;4.90;;;1.40;;
74789;SDS011;63318;52.406;13.416;2022-09-28T00:38:27;5.10;;;1.80;;
74789;SDS011;63318;52.406;13.416;2022-09-28T00:40:55;3.60;;;1.60;;
74789;SDS011;63318;52.406;13.416;2022-09-28T00:43:24;3.10;;;1.50;;
74789;SDS011;63318;52.406;13.416;2022-09-28T00:45:54;6.10;;;1.60;;
74789;SDS011;63318;52.406;13.416;2022-09-28T00:48:28;3.70;;;1.80;;
74789;SDS011;63318;52.406;13.416;2022-09-28T00:51:02;6.00;;;2.10;;
74789;SDS011;63318;52.406;13.416;2022-09-28T00:53:34;3.80;;;1.90;;
74789;SDS011;63318;52.406;13.416;2022-09-28T00:56:05;4.10;;;1.60;;
74789;SDS011;63318;52.406;13.416;2022-09-28T00:58:37;4.50;;;1.80;;
74789;SDS011;63318;52.406;13.416;2022-09-28T01:01:09;4.10;;;1.80;;
74789;SDS011;63318;52.406;13.416;2022-09-28T01:03:38;7.80;;;2.00;;
74789;SDS011;63318;52.406;13.416;2022-09-28T01:06:07;4.30;;;2.00;;
74789;SDS011;63318;52.406;13.416;2022-09-28T01:08:35;3.70;;;1.80;;
74789;SDS011;63318;52.406;13.416;2022-09-28T01:11:04;3.80;;;2.00;;
74789;SDS011;63318;52.406;13.416;2022-09-28T01:13:33;5.80;;;2.10;;
74789;SDS011;63318;52.406;13.416;2022-09-28T01:16:05;3.80;;;2.10;;
74789;SDS011;63318;52.406;13.416;2022-09-28T01:18:45;3.70;;;2.00;;
74789;SDS011;63318;52.406;13.416;2022-09-28T01:26:48;3.70;;;1.50;;
74789;SDS011;63318;52.406;13.416;2022-09-28T01:29:23;5.00;;;2.20;;
74789;SDS011;63318;52.406;13.416;2022-09-28T01:32:02;6.30;;;2.20;;
74789;SDS011;63318;52.406;13.416;2022-09-28T01:34:38;4.20;;;2.00;;
74789;SDS011;63318;52.406;13.416;2022-09-28T01:37:11;5.00;;;2.40;;
74789;SDS011;63318;52.406;13.416;2022-09-28T01:39:44;4.70;;;2.30;;
74789;SDS011;63318;52.406;13.416;2022-09-28T01:42:16;5.00;;;2.10;;
74789;SDS011;63318;52.406;13.416;2022-09-28T01:44:49;5.80;;;2.40;;
74789;SDS011;63318;52.406;13.416;2022-09-28T01:47:22;4.70;;;2.30;;
74789;SDS011;63318;52.406;13.416;2022-09-28T01:49:53;4.90;;;2.20;;
74789;SDS011;63318;52.406;13.416;2022-09-28T01:52:27;5.50;;;2.50;;
74789;SDS011;63318;52.406;13.416;2022-09-28T01:55:01;4.60;;;2.30;;
74789;SDS011;63318;52.406;13.416;2022-09-28T01:57:36;6.30;;;3.00;;
74789;SDS011;63318;52.406;13.416;2022-09-28T02:00:09;6.00;;;2.80;;
74789;SDS011;63318;52.406;13.416;2022-09-28T02:02:42;5.50;;;2.70;;
74789;SDS011;63318;52.406;13.416;2022-09-28T02:05:14;4.90;;;2.20;;
74789;SDS011;63318;52.406;13.416;2022-09-28T02:07:47;4.30;;;2.40;;
74789;SDS011;63318;52.406;13.416;2022-09-28T02:10:22;4.00;;;2.20;;
74789;SDS011;63318;52.406;13.416;2022-09-28T02:12:56;4.50;;;2.10;;
74789;SDS011;63318;52.406;13.416;2022-09-28T02:15:29;5.80;;;2.40;;
74789;SDS011;63318;52.406;13.416;2022-09-28T02:18:02;6.00;;;2.50;;
74789;SDS011;63318;52.406;13.416;2022-09-28T02:20:31;6.60;;;2.50;;
74789;SDS011;63318;52.406;13.416;2022-09-28T02:23:05;5.70;;;2.50;;
74789;SDS011;63318;52.406;13.416;2022-09-28T02:25:36;4.60;;;2.60;;
74789;SDS011;63318;52.406;13.416;2022-09-28T02:28:10;6.50;;;2.20;;
74789;SDS011;63318;52.406;13.416;2022-09-28T02:30:40;6.20;;;2.60;;
74789;SDS011;63318;52.406;13.416;2022-09-28T02:33:11;5.00;;;2.80;;
74789;SDS011;63318;52.406;13.416;2022-09-28T02:38:10;6.10;;;2.70;;
74789;SDS011;63318;52.406;13.416;2022-09-28T02:40:39;8.60;;;2.60;;
74789;SDS011;63318;52.406;13.416;2022-09-28T02:43:17;5.90;;;2.90;;
74789;SDS011;63318;52.406;13.416;2022-09-28T02:45:52;6.50;;;3.30;;
74789;SDS011;63318;52.406;13.416;2022-09-28T02:48:34;6.40;;;3.40;;
74789;SDS011;63318;52.406;13.416;2022-09-28T02:51:20;6.30;;;3.20;;
74789;SDS011;63318;52.406;13.416;2022-09-28T02:54:01;5.60;;;2.40;;
74789;SDS011;63318;52.406;13.416;2022-09-28T02:56:46;6.10;;;2.40;;
74789;SDS011;63318;52.406;13.416;2022-09-28T02:59:25;6.30;;;2.50;;
74789;SDS011;63318;52.406;13.416;2022-09-28T03:02:12;4.90;;;2.50;;
74789;SDS011;63318;52.406;13.416;2022-09-28T03:04:56;4.50;;;2.70;;
74789;SDS011;63318;52.406;13.416;2022-09-28T03:07:35;5.00;;;2.90;;
74789;SDS011;63318;52.406;13.416;2022-09-28T03:10:08;6.00;;;2.70;;
74789;SDS011;63318;52.406;13.416;2022-09-28T03:12:43;5.10;;;2.50;;
74789;SDS011;63318;52.406;13.416;2022-09-28T03:15:18;7.00;;;2.40;;
74789;SDS011;63318;52.406;13.416;2022-09-28T03:17:47;4.30;;;2.30;;
74789;SDS011;63318;52.406;13.416;2022-09-28T03:20:16;3.90;;;2.20;;
74789;SDS011;63318;52.406;13.416;2022-09-28T03:22:44;8.20;;;3.10;;
74789;SDS011;63318;52.406;13.416;2022-09-28T03:25:12;6.00;;;2.50;;
74789;SDS011;63318;52.406;13.416;2022-09-28T03:27:41;5.10;;;2.70;;
74789;SDS011;63318;52.406;13.416;2022-09-28T03:30:10;5.10;;;2.80;;
74789;SDS011;63318;52.406;13.416;2022-09-28T03:32:39;6.30;;;2.80;;
74789;SDS011;63318;52.406;13.416;2022-09-28T03:35:08;5.30;;;2.80;;
74789;SDS011;63318;52.406;13.416;2022-09-28T03:37:36;5.30;;;2.80;;
74789;SDS011;63318;52.406;13.416;2022-09-28T03:40:05;6.10;;;3.20;;
74789;SDS011;63318;52.406;13.416;2022-09-28T03:42:35;6.80;;;3.10;;
74789;SDS011;63318;52.406;13.416;2022-09-28T03:45:04;5.40;;;2.70;;
74789;SDS011;63318;52.406;13.416;2022-09-28T03:47:33;5.60;;;2.90;;
74789;SDS011;63318;52.406;13.416;2022-09-28T03:50:01;4.80;;;2.40;;
74789;SDS011;63318;52.406;13.416;2022-09-28T03:52:30;6.50;;;2.40;;
74789;SDS011;63318;52.406;13.416;2022-09-28T03:54:59;6.50;;;2.80;;
74789;SDS011;63318;52.406;13.416;2022-09-28T03:57:27;5.70;;;2.30;;
74789;SDS011;63318;52.406;13.416;2022-09-28T03:59:56;6.10;;;2.40;;
74789;SDS011;63318;52.406;13.416;2022-09-28T04:02:24;5.90;;;2.80;;
74789;SDS011;63318;52.406;13.416;2022-09-28T04:04:52;5.60;;;2.80;;
74789;SDS011;63318;52.406;13.416;2022-09-28T04:07:21;5.70;;;3.20;;
74789;SDS011;63318;52.406;13.416;2022-09-28T04:09:49;5.80;;;2.80;;
74789;SDS011;63318;52.406;13.416;2022-09-28T04:12:17;5.80;;;2.90;;
74789;SDS011;63318;52.406;13.416;2022-09-28T04:14:45;7.60;;;2.90;;
74789;SDS011;63318;52.406;13.416;2022-09-28T04:17:13;4.60;;;2.30;;
74789;SDS011;63318;52.406;13.416;2022-09-28T04:19:42;6.00;;;2.90;;
74789;SDS011;63318;52.406;13.416;2022-09-28T04:22:10;6.40;;;3.10;;
74789;SDS011;63318;52.406;13.416;2022-09-28T04:24:38;5.00;;;2.20;;
74789;SDS011;63318;52.406;13.416;2022-09-28T04:27:06;5.50;;;3.00;;
74789;SDS011;63318;52.406;13.416;2022-09-28T04:29:34;5.90;;;3.20;;
74789;SDS011;63318;52.406;13.416;2022-09-28T04:32:02;6.90;;;3.30;;
74789;SDS011;63318;52.406;13.416;2022-09-28T04:34:31;5.80;;;2.90;;
74789;SDS011;63318;52.406;13.416;2022-09-28T04:36:59;7.10;;;3.60;;
74789;SDS011;63318;52.406;13.416;2022-09-28T04:39:27;6.80;;;3.30;;
74789;SDS011;63318;52.406;13.416;2022-09-28T04:41:55;6.80;;;3.20;;
74789;SDS011;63318;52.406;13.416;2022-09-28T04:44:23;6.10;;;2.70;;
74789;SDS011;63318;52.406;13.416;2022-09-28T04:46:53;6.50;;;3.50;;
74789;SDS011;63318;52.406;13.416;2022-09-28T04:49:21;4.60;;;2.30;;
74789;SDS011;63318;52.406;13.416;2022-09-28T04:51:50;5.40;;;2.90;;
74789;SDS011;63318;52.406;13.416;2022-09-28T04:54:18;5.60;;;2.90;;
74789;SDS011;63318;52.406;13.416;2022-09-28T04:56:46;5.40;;;2.80;;
74789;SDS011;63318;52.406;13.416;2022-09-28T04:59:14;6.70;;;3.10;;
74789;SDS011;63318;52.406;13.416;2022-09-28T05:01:42;6.40;;;3.10;;
74789;SDS011;63318;52.406;13.416;2022-09-28T05:04:11;6.60;;;3.30;;
74789;SDS011;63318;52.406;13.416;2022-09-28T05:06:39;8.20;;;3.00;;
74789;SDS011;63318;52.406;13.416;2022-09-28T05:09:07;6.20;;;3.70;;
74789;SDS011;63318;52.406;13.416;2022-09-28T05:11:35;7.10;;;3.00;;
74789;SDS011;63318;52.406;13.416;2022-09-28T05:14:03;6.50;;;3.30;;
74789;SDS011;63318;52.406;13.416;2022-09-28T05:16:31;6.40;;;3.40;;
74789;SDS011;63318;52.406;13.416;2022-09-28T05:19:00;6.70;;;3.40;;
74789;SDS011;63318;52.406;13.416;2022-09-28T05:21:28;5.50;;;2.60;;
74789;SDS011;63318;52.406;13.416;2022-09-28T05:23:56;6.10;;;3.00;;
74789;SDS011;63318;52.406;13.416;2022-09-28T05:26:24;6.00;;;3.10;;
74789;SDS011;63318;52.406;13.416;2022-09-28T05:28:52;6.90;;;3.20;;
74789;SDS011;63318;52.406;13.416;2022-09-28T05:31:21;6.40;;;3.20;;
74789;SDS011;63318;52.406;13.416;2022-09-28T05:33:50;7.50;;;3.70;;
74789;SDS011;63318;52.406;13.416;2022-09-28T05:36:18;5.50;;;2.50;;
74789;SDS011;63318;52.406;13.416;2022-09-28T05:38:46;7.00;;;3.30;;
74789;SDS011;63318;52.406;13.416;2022-09-28T05:41:14;6.20;;;3.30;;
74789;SDS011;63318;52.406;13.416;2022-09-28T05:43:42;5.50;;;3.40;;
74789;SDS011;63318;52.406;13.416;2022-09-28T05:46:10;7.80;;;3.70;;
74789;SDS011;63318;52.406;13.416;2022-09-28T05:48:39;5.70;;;2.90;;
74789;SDS011;63318;52.406;13.416;2022-09-28T05:51:07;5.60;;;2.90;;
74789;SDS011;63318;52.406;13.416;2022-09-28T05:53:35;5.80;;;3.10;;
74789;SDS011;63318;52.406;13.416;2022-09-28T05:56:03;5.40;;;2.70;;
74789;SDS011;63318;52.406;13.416;2022-09-28T05:58:32;6.60;;;3.20;;
74789;SDS011;63318;52.406;13.416;2022-09-28T06:01:00;5.30;;;2.60;;
74789;SDS011;63318;52.406;13.416;2022-09-28T06:03:28;6.50;;;3.10;;
74789;SDS011;63318;52.406;13.416;2022-09-28T06:05:58;6.90;;;3.50;;
74789;SDS011;63318;52.406;13.416;2022-09-28T06:08:27;5.20;;;3.20;;
74789;SDS011;63318;52.406;13.416;2022-09-28T06:10:59;7.30;;;3.40;;
74789;SDS011;63318;52.406;13.416;2022-09-28T06:13:27;8.70;;;3.30;;
74789;SDS011;63318;52.406;13.416;2022-09-28T06:15:56;7.30;;;3.40;;
74789;SDS011;63318;52.406;13.416;2022-09-28T06:18:24;6.40;;;3.60;;
74789;SDS011;63318;52.406;13.416;2022-09-28T06:20:52;6.40;;;3.30;;
74789;SDS011;63318;52.406;13.416;2022-09-28T06:23:20;8.80;;;3.60;;
74789;SDS011;63318;52.406;13.416;2022-09-28T06:25:49;5.60;;;2.90;;
74789;SDS011;63318;52.406;13.416;2022-09-28T06:28:17;7.60;;;2.70;;
74789;SDS011;63318;52.406;13.416;2022-09-28T06:30:45;5.00;;;2.50;;
74789;SDS011;63318;52.406;13.416;2022-09-28T06:33:13;6.00;;;3.30;;
74789;SDS011;63318;52.406;13.416;2022-09-28T06:35:42;5.60;;;3.30;;
74789;SDS011;63318;52.406;13.416;2022-09-28T06:38:10;6.20;;;3.20;;
74789;SDS011;63318;52.406;13.416;2022-09-28T06:40:38;6.10;;;3.00;;
74789;SDS011;63318;52.406;13.416;2022-09-28T06:43:08;7.70;;;3.50;;
74789;SDS011;63318;52.406;13.416;2022-09-28T06:45:37;7.50;;;3.30;;
74789;SDS011;63318;52.406;13.416;2022-09-28T06:48:06;7.90;;;3.10;;
74789;SDS011;63318;52.406;13.416;2022-09-28T06:50:36;8.30;;;4.70;;
74789;SDS011;63318;52.406;13.416;2022-09-28T06:53:06;7.70;;;4.00;;
74789;SDS011;63318;52.406;13.416;2022-09-28T06:55:38;9.50;;;4.10;;
74789;SDS011;63318;52.406;13.416;2022-09-28T06:58:08;6.30;;;3.60;;
74789;SDS011;63318;52.406;13.416;2022-09-28T07:00:38;6.90;;;3.30;;
74789;SDS011;63318;52.406;13.416;2022-09-28T07:03:09;7.30;;;3.80;;
74789;SDS011;63318;52.406;13.416;2022-09-28T07:05:39;13.80;;;4.20;;
74789;SDS011;63318;52.406;13.416;2022-09-28T07:08:09;6.90;;;3.50;;
74789;SDS011;63318;52.406;13.416;2022-09-28T07:10:41;7.00;;;3.50;;
74789;SDS011;63318;52.406;13.416;2022-09-28T07:13:11;7.80;;;3.70;;
74789;SDS011;63318;52.406;13.416;2022-09-28T07:15:41;5.70;;;3.40;;
74789;SDS011;63318;52.406;13.416;2022-09-28T07:18:10;6.80;;;3.30;;
74789;SDS011;63318;52.406;13.416;2022-09-28T07:20:38;8.00;;;3.50;;
74789;SDS011;63318;52.406;13.416;2022-09-28T07:23:06;7.40;;;3.90;;
74789;SDS011;63318;52.406;13.416;2022-09-28T07:25:35;8.40;;;3.90;;
74789;SDS011;63318;52.406;13.416;2022-09-28T07:28:03;5.90;;;3.00;;
74789;SDS011;63318;52.406;13.416;2022-09-28T07:30:32;7.00;;;3.70;;
74789;SDS011;63318;52.406;13.416;2022-09-28T07:33:01;11.60;;;6.30;;
74789;SDS011;63318;52.406;13.416;2022-09-28T07:35:31;8.40;;;5.00;;
74789;SDS011;63318;52.406;13.416;2022-09-28T07:37:59;6.70;;;3.40;;
74789;SDS011;63318;52.406;13.416;2022-09-28T07:40:29;8.20;;;3.90;;
74789;SDS011;63318;52.406;13.416;2022-09-28T07:43:03;6.70;;;3.50;;
74789;SDS011;63318;52.406;13.416;2022-09-28T07:45:31;5.60;;;3.30;;
74789;SDS011;63318;52.406;13.416;2022-09-28T07:48:00;7.20;;;3.40;;
74789;SDS011;63318;52.406;13.416;2022-09-28T07:50:28;6.70;;;3.20;;
74789;SDS011;63318;52.406;13.416;2022-09-28T07:52:57;8.50;;;3.20;;
74789;SDS011;63318;52.406;13.416;2022-09-28T07:55:25;5.00;;;2.40;;
74789;SDS011;63318;52.406;13.416;2022-09-28T07:57:54;5.90;;;3.20;;
74789;SDS011;63318;52.406;13.416;2022-09-28T08:00:23;5.30;;;2.90;;
74789;SDS011;63318;52.406;13.416;2022-09-28T08:02:51;6.30;;;3.20;;
74789;SDS011;63318;52.406;13.416;2022-09-28T08:05:19;8.30;;;3.40;;
74789;SDS011;63318;52.406;13.416;2022-09-28T08:07:49;5.00;;;2.80;;
74789;SDS011;63318;52.406;13.416;2022-09-28T08:10:17;5.00;;;2.80;;
74789;SDS011;63318;52.406;13.416;2022-09-28T08:12:45;5.70;;;2.80;;
74789;SDS011;63318;52.406;13.416;2022-09-28T08:15:16;5.50;;;2.70;;
74789;SDS011;63318;52.406;13.416;2022-09-28T08:17:46;5.60;;;2.90;;
74789;SDS011;63318;52.406;13.416;2022-09-28T08:20:15;4.60;;;2.40;;
74789;SDS011;63318;52.406;13.416;2022-09-28T08:22:43;8.10;;;3.00;;
74789;SDS011;63318;52.406;13.416;2022-09-28T08:25:12;5.60;;;2.80;;
74789;SDS011;63318;52.406;13.416;2022-09-28T08:27:40;4.90;;;2.50;;
74789;SDS011;63318;52.406;13.416;2022-09-28T08:30:09;5.40;;;2.90;;
74789;SDS011;63318;52.406;13.416;2022-09-28T08:32:38;6.00;;;2.10;;
74789;SDS011;63318;52.406;13.416;2022-09-28T08:35:11;4.10;;;1.90;;
74789;SDS011;63318;52.406;13.416;2022-09-28T08:37:39;4.40;;;1.80;;
74789;SDS011;63318;52.406;13.416;2022-09-28T08:40:09;3.60;;;1.50;;
74789;SDS011;63318;52.406;13.416;2022-09-28T08:42:43;4.20;;;1.50;;
74789;SDS011;63318;52.406;13.416;2022-09-28T08:45:13;4.60;;;1.30;;
74789;SDS011;63318;52.406;13.416;2022-09-28T08:47:49;3.90;;;1.20;;
74789;SDS011;63318;52.406;13.416;2022-09-28T08:50:22;3.60;;;1.00;;
74789;SDS011;63318;52.406;13.416;2022-09-28T08:52:56;3.30;;;1.20;;
74789;SDS011;63318;52.406;13.416;2022-09-28T08:55:31;4.10;;;1.10;;
74789;SDS011;63318;52.406;13.416;2022-09-28T08:58:03;3.20;;;1.10;;
74789;SDS011;63318;52.406;13.416;2022-09-28T09:00:37;2.60;;;1.10;;
74789;SDS011;63318;52.406;13.416;2022-09-28T09:03:10;4.30;;;1.30;;
74789;SDS011;63318;52.406;13.416;2022-09-28T09:05:48;4.70;;;1.20;;
74789;SDS011;63318;52.406;13.416;2022-09-28T09:08:28;4.00;;;1.20;;
74789;SDS011;63318;52.406;13.416;2022-09-28T09:11:07;3.70;;;1.30;;
74789;SDS011;63318;52.406;13.416;2022-09-28T09:13:56;3.10;;;1.10;;
74789;SDS011;63318;52.406;13.416;2022-09-28T09:16:44;2.40;;;1.20;;
74789;SDS011;63318;52.406;13.416;2022-09-28T09:19:28;3.00;;;1.40;;
74789;SDS011;63318;52.406;13.416;2022-09-28T09:22:08;3.70;;;1.30;;
74789;SDS011;63318;52.406;13.416;2022-09-28T09:24:44;4.00;;;1.60;;
74789;SDS011;63318;52.406;13.416;2022-09-28T09:27:22;3.70;;;1.40;;
74789;SDS011;63318;52.406;13.416;2022-09-28T09:30:03;5.00;;;1.50;;
74789;SDS011;63318;52.406;13.416;2022-09-28T09:32:37;2.70;;;1.10;;
74789;SDS011;63318;52.406;13.416;2022-09-28T09:35:23;2.80;;;1.20;;
74789;SDS011;63318;52.406;13.416;2022-09-28T09:38:12;2.60;;;0.90;;
74789;SDS011;63318;52.406;13.416;2022-09-28T09:40:59;2.70;;;1.10;;
74789;SDS011;63318;52.406;13.416;2022-09-28T09:46:33;2.60;;;0.90;;
74789;SDS011;63318;52.406;13.416;2022-09-28T09:49:07;3.50;;;0.90;;
74789;SDS011;63318;52.406;13.416;2022-09-28T09:51:42;3.60;;;1.10;;
74789;SDS011;63318;52.406;13.416;2022-09-28T09:54:17;2.60;;;0.90;;
74789;SDS011;63318;52.406;13.416;2022-09-28T09:56:50;2.90;;;1.00;;
74789;SDS011;63318;52.406;13.416;2022-09-28T09:59:23;3.30;;;0.90;;
74789;SDS011;63318;52.406;13.416;2022-09-28T10:01:56;3.10;;;0.90;;
74789;SDS011;63318;52.406;13.416;2022-09-28T10:04:26;6.40;;;1.10;;
74789;SDS011;63318;52.406;13.416;2022-09-28T10:07:02;2.70;;;0.80;;
74789;SDS011;63318;52.406;13.416;2022-09-28T10:09:33;3.30;;;1.00;;
74789;SDS011;63318;52.406;13.416;2022-09-28T10:12:06;2.80;;;1.30;;
74789;SDS011;63318;52.406;13.416;2022-09-28T10:14:37;3.20;;;1.00;;
74789;SDS011;63318;52.406;13.416;2022-09-28T10:17:06;4.40;;;1.00;;
74789;SDS011;63318;52.406;13.416;2022-09-28T10:19:35;3.60;;;1.20;;
74789;SDS011;63318;52.406;13.416;2022-09-28T10:22:04;5.80;;;1.00;;
74789;SDS011;63318;52.406;13.416;2022-09-28T10:24:35;3.20;;;1.10;;
74789;SDS011;63318;52.406;13.416;2022-09-28T10:27:10;2.60;;;1.10;;
74789;SDS011;63318;52.406;13.416;2022-09-28T10:29:44;2.80;;;1.40;;
74789;SDS011;63318;52.406;13.416;2022-09-28T10:32:20;3.10;;;1.40;;
74789;SDS011;63318;52.406;13.416;2022-09-28T10:34:50;4.10;;;1.50;;
74789;SDS011;63318;52.406;13.416;2022-09-28T10:37:19;3.30;;;1.70;;
74789;SDS011;63318;52.406;13.416;2022-09-28T10:39:48;3.20;;;1.60;;
74789;SDS011;63318;52.406;13.416;2022-09-28T10:42:18;2.70;;;1.30;;
74789;SDS011;63318;52.406;13.416;2022-09-28T10:44:52;3.40;;;1.80;;
74789;SDS011;63318;52.406;13.416;2022-09-28T10:47:24;4.10;;;1.60;;
74789;SDS011;63318;52.406;13.416;2022-09-28T10:49:55;3.60;;;1.50;;
74789;SDS011;63318;52.406;13.416;2022-09-28T10:52:31;4.80;;;2.00;;
74789;SDS011;63318;52.406;13.416;2022-09-28T10:55:24;4.30;;;1.50;;
74789;SDS011;63318;52.406;13.416;2022-09-28T10:57:54;3.80;;;1.50;;
74789;SDS011;63318;52.406;13.416;2022-09-28T11:03:08;3.20;;;1.70;;
74789;SDS011;63318;52.406;13.416;2022-09-28T11:05:55;3.30;;;1.40;;
74789;SDS011;63318;52.406;13.416;2022-09-28T11:08:27;4.10;;;1.40;;
74789;SDS011;63318;52.406;13.416;2022-09-28T11:11:03;4.00;;;2.00;;
74789;SDS011;63318;52.406;13.416;2022-09-28T11:13:42;3.90;;;1.60;;
74789;SDS011;63318;52.406;13.416;2022-09-28T11:16:22;3.50;;;1.50;;
74789;SDS011;63318;52.406;13.416;2022-09-28T11:18:52;3.70;;;1.70;;
74789;SDS011;63318;52.406;13.416;2022-09-28T11:21:25;3.20;;;1.60;;
74789;SDS011;63318;52.406;13.416;2022-09-28T11:23:56;3.30;;;1.70;;
74789;SDS011;63318;52.406;13.416;2022-09-28T11:26:26;3.80;;;1.80;;
74789;SDS011;63318;52.406;13.416;2022-09-28T11:28:59;3.60;;;1.70;;
74789;SDS011;63318;52.406;13.416;2022-09-28T11:31:27;3.50;;;1.60;;
74789;SDS011;63318;52.406;13.416;2022-09-28T11:34:04;3.90;;;1.80;;
74789;SDS011;63318;52.406;13.416;2022-09-28T11:36:52;4.80;;;2.80;;
74789;SDS011;63318;52.406;13.416;2022-09-28T11:39:37;4.30;;;1.90;;
74789;SDS011;63318;52.406;13.416;2022-09-28T11:42:16;4.20;;;1.50;;
74789;SDS011;63318;52.406;13.416;2022-09-28T11:44:57;4.50;;;1.50;;
74789;SDS011;63318;52.406;13.416;2022-09-28T11:50:15;2.90;;;1.50;;
74789;SDS011;63318;52.406;13.416;2022-09-28T11:52:51;3.70;;;1.40;;
74789;SDS011;63318;52.406;13.416;2022-09-28T11:55:28;3.70;;;1.30;;
74789;SDS011;63318;52.406;13.416;2022-09-28T11:58:02;2.90;;;1.20;;
74789;SDS011;63318;52.406;13.416;2022-09-28T12:00:39;3.80;;;1.20;;
74789;SDS011;63318;52.406;13.416;2022-09-28T12:03:13;2.30;;;1.00;;
74789;SDS011;63318;52.406;13.416;2022-09-28T12:05:47;3.90;;;1.10;;
74789;SDS011;63318;52.406;13.416;2022-09-28T12:08:18;5.20;;;1.20;;
74789;SDS011;63318;52.406;13.416;2022-09-28T12:10:50;3.40;;;1.20;;
74789;SDS011;63318;52.406;13.416;2022-09-28T12:13:25;3.70;;;1.20;;
74789;SDS011;63318;52.406;13.416;2022-09-28T12:15:56;3.00;;;1.10;;
74789;SDS011;63318;52.406;13.416;2022-09-28T12:23:33;2.40;;;1.00;;
74789;SDS011;63318;52.406;13.416;2022-09-28T12:26:04;3.30;;;1.10;;
74789;SDS011;63318;52.406;13.416;2022-09-28T12:28:41;3.60;;;1.00;;
74789;SDS011;63318;52.406;13.416;2022-09-28T12:31:15;2.60;;;1.20;;
74789;SDS011;63318;52.406;13.416;2022-09-28T12:33:47;4.00;;;1.10;;
74789;SDS011;63318;52.406;13.416;2022-09-28T12:36:21;2.40;;;1.00;;
74789;SDS011;63318;52.406;13.416;2022-09-28T12:39:08;2.60;;;1.00;;
74789;SDS011;63318;52.406;13.416;2022-09-28T12:41:51;2.40;;;1.00;;
74789;SDS011;63318;52.406;13.416;2022-09-28T12:44:32;2.50;;;1.00;;
74789;SDS011;63318;52.406;13.416;2022-09-28T12:47:17;4.30;;;1.00;;
74789;SDS011;63318;52.406;13.416;2022-09-28T12:50:01;2.70;;;1.00;;
74789;SDS011;63318;52.406;13.416;2022-09-28T12:52:37;2.50;;;0.90;;
74789;SDS011;63318;52.406;13.416;2022-09-28T12:55:18;2.30;;;0.90;;
74789;SDS011;63318;52.406;13.416;2022-09-28T12:57:58;2.40;;;0.90;;
74789;SDS011;63318;52.406;13.416;2022-09-28T13:00:44;2.80;;;1.00;;
74789;SDS011;63318;52.406;13.416;2022-09-28T13:03:24;3.20;;;1.20;;
74789;SDS011;63318;52.406;13.416;2022-09-28T13:06:10;3.20;;;1.10;;
74789;SDS011;63318;52.406;13.416;2022-09-28T13:09:05;2.90;;;1.30;;
74789;SDS011;63318;52.406;13.416;2022-09-28T13:11:45;2.30;;;1.00;;
74789;SDS011;63318;52.406;13.416;2022-09-28T13:17:37;2.80;;;0.80;;
74789;SDS011;63318;52.406;13.416;2022-09-28T13:20:19;4.10;;;0.80;;
74789;SDS011;63318;52.406;13.416;2022-09-28T13:22:54;2.60;;;0.90;;
74789;SDS011;63318;52.406;13.416;2022-09-28T13:25:30;2.00;;;0.80;;
74789;SDS011;63318;52.406;13.416;2022-09-28T13:28:02;4.10;;;0.50;;
74789;SDS011;63318;52.406;13.416;2022-09-28T13:30:31;2.30;;;0.90;;
74789;SDS011;63318;52.406;13.416;2022-09-28T13:33:04;2.80;;;0.90;;
74789;SDS011;63318;52.406;13.416;2022-09-28T13:35:36;3.00;;;0.80;;
74789;SDS011;63318;52.406;13.416;2022-09-28T13:41:12;2.90;;;0.80;;
74789;SDS011;63318;52.406;13.416;2022-09-28T13:44:06;3.60;;;1.10;;
74789;SDS011;63318;52.406;13.416;2022-09-28T13:46:47;2.60;;;0.90;;
74789;SDS011;63318;52.406;13.416;2022-09-28T13:49:22;2.20;;;1.00;;
74789;SDS011;63318;52.406;13.416;2022-09-28T13:52:00;3.00;;;1.10;;
74789;SDS011;63318;52.406;13.416;2022-09-28T13:54:51;3.40;;;1.10;;
74789;SDS011;63318;52.406;13.416;2022-09-28T13:57:39;2.90;;;1.10;;
74789;SDS011;63318;52.406;13.416;2022-09-28T14:00:14;2.50;;;0.80;;
74789;SDS011;63318;52.406;13.416;2022-09-28T14:02:48;3.80;;;1.50;;
74789;SDS011;63318;52.406;13.416;2022-09-28T14:08:27;4.00;;;1.10;;
74789;SDS011;63318;52.406;13.416;2022-09-28T14:11:22;3.40;;;1.20;;
74789;SDS011;63318;52.406;13.416;2022-09-28T14:14:18;2.70;;;1.00;;
74789;SDS011;63318;52.406;13.416;2022-09-28T14:16:52;2.40;;;0.90;;
74789;SDS011;63318;52.406;13.416;2022-09-28T14:22:17;2.80;;;1.00;;
74789;SDS011;63318;52.406;13.416;2022-09-28T14:24:57;5.20;;;1.10;;
74789;SDS011;63318;52.406;13.416;2022-09-28T14:27:41;3.10;;;0.90;;
74789;SDS011;63318;52.406;13.416;2022-09-28T14:30:24;3.10;;;1.10;;
74789;SDS011;63318;52.406;13.416;2022-09-28T14:33:00;4.10;;;1.20;;
74789;SDS011;63318;52.406;13.416;2022-09-28T14:35:48;2.30;;;0.70;;
74789;SDS011;63318;52.406;13.416;2022-09-28T14:38:19;3.60;;;1.20;;
74789;SDS011;63318;52.406;13.416;2022-09-28T14:40:55;2.80;;;1.10;;
74789;SDS011;63318;52.406;13.416;2022-09-28T14:43:33;3.10;;;1.20;;
74789;SDS011;63318;52.406;13.416;2022-09-28T14:46:29;3.10;;;1.10;;
74789;SDS011;63318;52.406;13.416;2022-09-28T14:49:41;7.90;;;3.40;;
74789;SDS011;63318;52.406;13.416;2022-09-28T14:52:11;3.70;;;1.20;;
74789;SDS011;63318;52.406;13.416;2022-09-28T14:54:50;3.40;;;1.00;;
74789;SDS011;63318;52.406;13.416;2022-09-28T14:57:20;2.10;;;0.80;;
74789;SDS011;63318;52.406;13.416;2022-09-28T14:59:50;2.40;;;1.00;;
74789;SDS011;63318;52.406;13.416;2022-09-28T15:02:22;2.40;;;0.80;;
74789;SDS011;63318;52.406;13.416;2022-09-28T15:04:54;2.30;;;0.90;;
74789;SDS011;63318;52.406;13.416;2022-09-28T15:07:28;2.80;;;0.90;;
74789;SDS011;63318;52.406;13.416;2022-09-28T15:10:18;2.90;;;1.00;;
74789;SDS011;63318;52.406;13.416;2022-09-28T15:12:51;2.40;;;0.90;;
74789;SDS011;63318;52.406;13.416;2022-09-28T15:15:24;4.00;;;1.10;;
74789;SDS011;63318;52.406;13.416;2022-09-28T15:17:58;3.30;;;1.20;;
74789;SDS011;63318;52.406;13.416;2022-09-28T15:20:38;2.30;;;1.00;;
74789;SDS011;63318;52.406;13.416;2022-09-28T15:23:21;3.20;;;1.00;;
74789;SDS011;63318;52.406;13.416;2022-09-28T15:25:52;4.10;;;1.20;;
74789;SDS011;63318;52.406;13.416;2022-09-28T15:28:21;2.40;;;0.90;;
74789;SDS011;63318;52.406;13.416;2022-09-28T15:30:50;2.60;;;0.90;;
74789;SDS011;63318;52.406;13.416;2022-09-28T15:33:25;3.00;;;0.90;;
74789;SDS011;63318;52.406;13.416;2022-09-28T15:35:55;2.60;;;1.00;;
74789;SDS011;63318;52.406;13.416;2022-09-28T15:38:26;3.40;;;1.20;;
74789;SDS011;63318;52.406;13.416;2022-09-28T15:40:56;3.10;;;1.20;;